createdAt,value
2016-12-14T00:00:08.226Z,0
2016-12-14T00:01:08.057Z,0
2016-12-14T00:02:08.239Z,0
2016-12-14T00:03:10.056Z,0
2016-12-14T00:04:08.176Z,0
2016-12-14T00:05:08.128Z,0
2016-12-14T00:06:08.113Z,0
2016-12-14T00:07:08.271Z,0
2016-12-14T00:08:08.089Z,0
2016-12-14T00:09:08.363Z,0
2016-12-14T00:10:08.377Z,0
2016-12-14T00:11:08.214Z,0
2016-12-14T00:12:08.109Z,0
2016-12-14T00:13:10.945Z,0
2016-12-14T00:14:08.253Z,0
2016-12-14T00:15:08.058Z,0
2016-12-14T00:16:08.298Z,0
2016-12-14T00:17:08.068Z,0
2016-12-14T00:18:08.428Z,0
2016-12-14T00:19:08.075Z,0
2016-12-14T00:20:08.249Z,0
2016-12-14T00:21:08.056Z,0
2016-12-14T00:22:08.388Z,0
2016-12-14T00:23:08.078Z,0
2016-12-14T00:24:08.292Z,0
2016-12-14T00:25:08.082Z,0
2016-12-14T00:26:08.198Z,0
2016-12-14T00:27:08.084Z,0
2016-12-14T00:28:08.096Z,0
2016-12-14T00:29:08.117Z,0
2016-12-14T00:30:08.218Z,0
2016-12-14T00:31:08.133Z,0
2016-12-14T00:32:08.255Z,0
2016-12-14T00:33:08.135Z,0
2016-12-14T00:34:08.337Z,0
2016-12-14T00:35:08.085Z,0
2016-12-14T00:36:08.168Z,0
2016-12-14T00:37:08.176Z,0
2016-12-14T00:38:08.336Z,0
2016-12-14T00:39:08.147Z,0
2016-12-14T00:40:08.245Z,0
2016-12-14T00:41:08.122Z,0
2016-12-14T00:42:08.285Z,0
2016-12-14T00:43:08.065Z,0
2016-12-14T00:44:08.354Z,0
2016-12-14T00:45:08.077Z,0
2016-12-14T00:46:08.291Z,0
2016-12-14T00:47:08.056Z,0
2016-12-14T00:48:08.204Z,0
2016-12-14T00:49:08.014Z,0
2016-12-14T00:50:08.053Z,0
2016-12-14T00:51:08.126Z,0
2016-12-14T00:52:08.188Z,0
2016-12-14T00:53:08.125Z,0
2016-12-14T00:54:08.216Z,0
2016-12-14T00:55:08.045Z,0
2016-12-14T00:56:08.166Z,0
2016-12-14T00:57:08.093Z,0
2016-12-14T00:58:08.341Z,0
2016-12-14T00:59:08.196Z,0
2016-12-14T01:00:08.217Z,0
2016-12-14T01:01:08.155Z,0
2016-12-14T01:02:08.186Z,0
2016-12-14T01:03:08.087Z,0
2016-12-14T01:04:08.168Z,0
2016-12-14T01:05:08.107Z,0
2016-12-14T01:06:08.205Z,0
2016-12-14T01:07:08.157Z,0
2016-12-14T01:08:08.285Z,0
2016-12-14T01:09:08.112Z,0
2016-12-14T01:10:08.088Z,0
2016-12-14T01:11:09.147Z,0
2016-12-14T01:12:08.252Z,0
2016-12-14T01:13:08.072Z,0
2016-12-14T01:14:08.272Z,0
2016-12-14T01:15:08.170Z,0
2016-12-14T01:16:08.158Z,0
2016-12-14T01:17:08.118Z,0
2016-12-14T01:18:08.369Z,0
2016-12-14T01:19:08.324Z,0
2016-12-14T01:20:08.308Z,0
2016-12-14T01:21:08.134Z,0
2016-12-14T01:22:08.235Z,0
2016-12-14T01:23:08.109Z,0
2016-12-14T01:24:08.379Z,0
2016-12-14T01:25:08.213Z,0
2016-12-14T01:26:08.385Z,0
2016-12-14T01:27:08.095Z,0
2016-12-14T01:28:08.292Z,0
2016-12-14T01:29:08.196Z,0
2016-12-14T01:30:08.248Z,0
2016-12-14T01:31:08.116Z,0
2016-12-14T01:32:08.316Z,0
2016-12-14T01:33:08.130Z,0
2016-12-14T01:34:08.315Z,0
2016-12-14T01:35:08.121Z,0
2016-12-14T01:36:18.215Z,0
2016-12-14T01:37:08.078Z,0
2016-12-14T01:38:08.472Z,0
2016-12-14T01:39:08.176Z,0
2016-12-14T01:40:08.344Z,0
2016-12-14T01:41:08.087Z,0
2016-12-14T01:42:08.345Z,0
2016-12-14T01:43:08.135Z,0
2016-12-14T01:44:08.306Z,0
2016-12-14T01:45:08.091Z,0
2016-12-14T01:46:09.175Z,0
2016-12-14T01:47:08.142Z,0
2016-12-14T01:48:08.488Z,0
2016-12-14T01:49:08.495Z,0
2016-12-14T01:50:08.561Z,0
2016-12-14T01:51:08.421Z,0
2016-12-14T01:52:08.608Z,0
2016-12-14T01:53:08.621Z,0
2016-12-14T01:54:08.639Z,0
2016-12-14T01:55:08.142Z,0
2016-12-14T01:56:10.767Z,0
2016-12-14T01:57:11.590Z,0
2016-12-14T01:58:08.218Z,0
2016-12-14T01:59:08.233Z,0
2016-12-14T02:00:08.290Z,0
2016-12-14T02:01:08.116Z,0
2016-12-14T02:02:08.205Z,0
2016-12-14T02:03:08.344Z,0
2016-12-14T02:04:08.255Z,0
2016-12-14T02:05:08.194Z,0
2016-12-14T02:06:08.384Z,0
2016-12-14T02:07:08.191Z,0
2016-12-14T02:08:08.363Z,0
2016-12-14T02:09:08.186Z,0
2016-12-14T02:10:08.230Z,0
2016-12-14T02:11:08.222Z,0
2016-12-14T02:12:08.315Z,0
2016-12-14T02:13:08.155Z,0
2016-12-14T02:14:08.203Z,0
2016-12-14T02:15:09.369Z,0
2016-12-14T02:16:08.412Z,0
2016-12-14T02:17:08.243Z,0
2016-12-14T02:18:08.341Z,0
2016-12-14T02:19:08.213Z,0
2016-12-14T02:20:08.244Z,0
2016-12-14T02:21:08.203Z,0
2016-12-14T02:22:08.324Z,0
2016-12-14T02:23:08.299Z,0
2016-12-14T02:24:08.314Z,0
2016-12-14T02:25:08.196Z,0
2016-12-14T02:26:08.283Z,0
2016-12-14T02:27:08.306Z,0
2016-12-14T02:28:08.226Z,0
2016-12-14T02:29:08.229Z,0
2016-12-14T02:30:08.425Z,0
2016-12-14T02:31:09.222Z,0
2016-12-14T02:32:08.318Z,0
2016-12-14T02:33:08.263Z,0
2016-12-14T02:34:08.323Z,0
2016-12-14T02:35:08.303Z,0
2016-12-14T02:36:08.956Z,0
2016-12-14T02:37:08.174Z,0
2016-12-14T02:38:08.334Z,0
2016-12-14T02:39:08.247Z,0
2016-12-14T02:40:08.326Z,0
2016-12-14T02:41:08.391Z,0
2016-12-14T02:42:08.468Z,0
2016-12-14T02:43:08.270Z,0
2016-12-14T02:44:08.477Z,0
2016-12-14T02:45:08.208Z,0
2016-12-14T02:46:08.214Z,0
2016-12-14T02:47:08.193Z,0
2016-12-14T02:48:08.440Z,0
2016-12-14T02:49:08.207Z,0
2016-12-14T02:50:08.294Z,0
2016-12-14T02:51:08.164Z,0
2016-12-14T02:52:08.326Z,0
2016-12-14T02:53:08.240Z,0
2016-12-14T02:54:08.249Z,0
2016-12-14T02:55:08.191Z,0
2016-12-14T02:56:08.482Z,0
2016-12-14T02:57:08.325Z,0
2016-12-14T02:58:08.384Z,0
2016-12-14T02:59:08.234Z,0
2016-12-14T03:00:08.381Z,0
2016-12-14T03:01:08.224Z,0
2016-12-14T03:02:08.314Z,0
2016-12-14T03:03:08.197Z,0
2016-12-14T03:04:08.335Z,0
2016-12-14T03:05:08.205Z,0
2016-12-14T03:06:08.336Z,0
2016-12-14T03:07:08.204Z,0
2016-12-14T03:08:08.323Z,0
2016-12-14T03:09:08.400Z,0
2016-12-14T03:10:08.286Z,0
2016-12-14T03:11:08.254Z,0
2016-12-14T03:12:08.312Z,0
2016-12-14T03:13:08.182Z,0
2016-12-14T03:14:08.440Z,0
2016-12-14T03:15:08.293Z,0
2016-12-14T03:16:08.363Z,0
2016-12-14T03:17:08.244Z,0
2016-12-14T03:18:08.421Z,0
2016-12-14T03:19:08.233Z,0
2016-12-14T03:20:08.394Z,0
2016-12-14T03:21:08.219Z,0
2016-12-14T03:22:08.394Z,0
2016-12-14T03:23:08.276Z,0
2016-12-14T03:24:08.437Z,0
2016-12-14T03:25:08.342Z,0
2016-12-14T03:26:08.343Z,0
2016-12-14T03:27:08.348Z,0
2016-12-14T03:28:08.394Z,0
2016-12-14T03:29:08.366Z,0
2016-12-14T03:30:08.568Z,0
2016-12-14T03:31:08.303Z,0
2016-12-14T03:32:08.571Z,0
2016-12-14T03:33:08.308Z,0
2016-12-14T03:34:08.419Z,0
2016-12-14T03:35:08.279Z,0
2016-12-14T03:36:08.410Z,0
2016-12-14T03:37:08.403Z,0
2016-12-14T03:38:08.323Z,0
2016-12-14T03:39:08.294Z,0
2016-12-14T03:40:08.543Z,0
2016-12-14T03:41:08.264Z,0
2016-12-14T03:42:08.382Z,0
2016-12-14T03:43:08.249Z,0
2016-12-14T03:44:08.466Z,0
2016-12-14T03:45:08.263Z,0
2016-12-14T03:46:08.422Z,0
2016-12-14T03:47:08.408Z,0
2016-12-14T03:48:08.531Z,0
2016-12-14T03:49:08.314Z,0
2016-12-14T03:50:08.375Z,0
2016-12-14T03:51:08.431Z,0
2016-12-14T03:52:08.476Z,0
2016-12-14T03:53:08.263Z,0
2016-12-14T03:54:08.369Z,0
2016-12-14T03:55:08.242Z,0
2016-12-14T03:56:08.325Z,0
2016-12-14T03:57:08.314Z,0
2016-12-14T03:58:08.539Z,0
2016-12-14T03:59:08.350Z,0
2016-12-14T04:00:08.383Z,0
2016-12-14T04:01:08.417Z,0
2016-12-14T04:02:08.494Z,0
2016-12-14T04:03:08.393Z,0
2016-12-14T04:04:08.656Z,0
2016-12-14T04:05:08.342Z,0
2016-12-14T04:06:08.519Z,0
2016-12-14T04:07:08.330Z,0
2016-12-14T04:08:08.522Z,0
2016-12-14T04:09:08.369Z,0
2016-12-14T04:10:08.555Z,0
2016-12-14T04:11:08.333Z,0
2016-12-14T04:12:08.534Z,0
2016-12-14T04:13:08.372Z,0
2016-12-14T04:14:08.433Z,0
2016-12-14T04:15:08.412Z,0
2016-12-14T04:16:08.572Z,0
2016-12-14T04:17:08.428Z,0
2016-12-14T04:18:08.433Z,0
2016-12-14T04:19:08.375Z,0
2016-12-14T04:20:08.418Z,0
2016-12-14T04:21:08.458Z,0
2016-12-14T04:22:08.542Z,0
2016-12-14T04:23:09.082Z,0
2016-12-14T04:24:08.532Z,0
2016-12-14T04:25:08.450Z,0
2016-12-14T04:26:08.381Z,0
2016-12-14T04:27:08.324Z,0
2016-12-14T04:28:08.519Z,0
2016-12-14T04:29:08.437Z,0
2016-12-14T04:30:08.454Z,0
2016-12-14T04:31:08.353Z,0
2016-12-14T04:32:08.372Z,0
2016-12-14T04:33:08.470Z,0
2016-12-14T04:34:08.613Z,0
2016-12-14T04:35:08.444Z,0
2016-12-14T04:36:08.453Z,0
2016-12-14T04:37:08.430Z,0
2016-12-14T04:38:08.522Z,0
2016-12-14T04:39:08.925Z,0
2016-12-14T04:40:08.404Z,0
2016-12-14T04:41:08.445Z,0
2016-12-14T04:42:08.414Z,0
2016-12-14T04:43:08.520Z,0
2016-12-14T04:44:08.743Z,0
2016-12-14T04:45:08.464Z,0
2016-12-14T04:46:08.551Z,0
2016-12-14T04:47:08.513Z,0
2016-12-14T04:48:08.614Z,0
2016-12-14T04:49:08.385Z,0
2016-12-14T04:50:08.424Z,0
2016-12-14T04:51:08.346Z,0
2016-12-14T04:52:08.496Z,0
2016-12-14T04:53:08.510Z,0
2016-12-14T04:54:08.635Z,0
2016-12-14T04:55:08.330Z,0
2016-12-14T04:56:08.584Z,0
2016-12-14T04:57:08.483Z,0
2016-12-14T04:58:08.776Z,0
2016-12-14T04:59:10.634Z,0
2016-12-14T05:00:08.532Z,0
2016-12-14T05:01:08.363Z,0
2016-12-14T05:02:08.611Z,0
2016-12-14T05:03:08.492Z,0
2016-12-14T05:04:08.523Z,0
2016-12-14T05:05:08.374Z,0
2016-12-14T05:06:08.441Z,0
2016-12-14T05:07:08.427Z,0
2016-12-14T05:08:08.669Z,0
2016-12-14T05:09:08.595Z,0
2016-12-14T05:10:08.524Z,0
2016-12-14T05:11:08.625Z,0
2016-12-14T05:12:08.582Z,0
2016-12-14T05:13:08.363Z,0
2016-12-14T05:14:08.929Z,0
2016-12-14T05:15:08.514Z,0
2016-12-14T05:16:08.665Z,0
2016-12-14T05:17:08.527Z,0
2016-12-14T05:18:08.576Z,0
2016-12-14T05:19:08.601Z,0
2016-12-14T05:20:08.526Z,0
2016-12-14T05:21:09.157Z,0
2016-12-14T05:22:13.090Z,0
2016-12-14T05:23:11.455Z,0
2016-12-14T05:24:09.785Z,0
2016-12-14T05:25:10.696Z,0
2016-12-14T05:26:11.184Z,0
2016-12-14T05:27:12.312Z,0
2016-12-14T05:28:12.355Z,0
2016-12-14T05:29:10.339Z,0
2016-12-14T05:30:10.650Z,0
2016-12-14T05:31:08.413Z,0
2016-12-14T05:32:08.437Z,0
2016-12-14T05:33:08.610Z,0
2016-12-14T05:34:08.416Z,0
2016-12-14T05:35:08.700Z,0
2016-12-14T05:36:08.484Z,0
2016-12-14T05:37:08.381Z,0
2016-12-14T05:38:08.546Z,0
2016-12-14T05:39:08.547Z,0
2016-12-14T05:40:08.485Z,0
2016-12-14T05:41:08.484Z,0
2016-12-14T05:42:08.573Z,0
2016-12-14T05:43:08.569Z,0
2016-12-14T05:44:08.486Z,0
2016-12-14T05:45:08.503Z,0
2016-12-14T05:46:08.654Z,0
2016-12-14T05:47:08.435Z,0
2016-12-14T05:48:12.534Z,0
2016-12-14T05:49:10.724Z,0
2016-12-14T05:50:10.261Z,0
2016-12-14T05:51:10.782Z,0
2016-12-14T05:52:09.833Z,0
2016-12-14T05:53:09.753Z,0
2016-12-14T05:54:10.191Z,0
2016-12-14T05:55:09.983Z,0
2016-12-14T05:56:10.352Z,0
2016-12-14T05:57:12.185Z,0
2016-12-14T05:58:09.886Z,0
2016-12-14T05:59:09.180Z,0
2016-12-14T06:00:09.800Z,0
2016-12-14T06:01:09.092Z,0
2016-12-14T06:02:10.605Z,0
2016-12-14T06:03:09.781Z,0
2016-12-14T06:04:10.488Z,0
2016-12-14T06:05:09.529Z,0
2016-12-14T06:06:08.703Z,0
2016-12-14T06:07:11.165Z,0
2016-12-14T06:08:09.315Z,0
2016-12-14T06:09:11.236Z,0
2016-12-14T06:10:12.683Z,0
2016-12-14T06:11:08.686Z,0
2016-12-14T06:12:08.697Z,0
2016-12-14T06:13:08.659Z,0
2016-12-14T06:14:08.761Z,0
2016-12-14T06:15:08.583Z,0
2016-12-14T06:16:08.653Z,0
2016-12-14T06:17:08.517Z,0
2016-12-14T06:18:08.665Z,0
2016-12-14T06:19:08.546Z,0
2016-12-14T06:20:08.673Z,0
2016-12-14T06:21:08.606Z,0
2016-12-14T06:22:08.668Z,0
2016-12-14T06:23:08.553Z,0
2016-12-14T06:24:08.614Z,0
2016-12-14T06:25:08.568Z,0
2016-12-14T06:26:08.640Z,0
2016-12-14T06:27:08.673Z,0
2016-12-14T06:28:08.761Z,0
2016-12-14T06:29:08.564Z,0
2016-12-14T06:30:08.702Z,0
2016-12-14T06:31:08.663Z,0
2016-12-14T06:32:08.790Z,0
2016-12-14T06:33:08.617Z,0
2016-12-14T06:34:08.746Z,0
2016-12-14T06:35:08.706Z,0
2016-12-14T06:36:08.510Z,0
2016-12-14T06:37:08.618Z,0
2016-12-14T06:38:08.593Z,0
2016-12-14T06:39:08.605Z,0
2016-12-14T06:40:08.742Z,0
2016-12-14T06:41:08.537Z,0
2016-12-14T06:42:08.596Z,0
2016-12-14T06:43:08.547Z,0
2016-12-14T06:44:08.827Z,0
2016-12-14T06:45:08.582Z,0
2016-12-14T06:46:09.647Z,0
2016-12-14T06:47:08.543Z,0
2016-12-14T06:48:08.771Z,0
2016-12-14T06:49:08.569Z,0
2016-12-14T06:50:08.660Z,0
2016-12-14T06:51:08.605Z,0
2016-12-14T06:52:08.697Z,0
2016-12-14T06:53:08.637Z,0
2016-12-14T06:54:08.730Z,0
2016-12-14T06:55:08.644Z,0
2016-12-14T06:56:08.799Z,4
2016-12-14T06:57:08.620Z,4
2016-12-14T06:58:08.546Z,0
2016-12-14T06:59:09.203Z,0
2016-12-14T07:00:08.740Z,4
2016-12-14T07:01:08.787Z,0
2016-12-14T07:02:08.781Z,4
2016-12-14T07:03:08.720Z,4
2016-12-14T07:04:08.701Z,8
2016-12-14T07:05:08.707Z,4
2016-12-14T07:06:08.783Z,8
2016-12-14T07:07:08.855Z,8
2016-12-14T07:08:08.636Z,8
2016-12-14T07:09:08.623Z,8
2016-12-14T07:10:08.584Z,12
2016-12-14T07:11:08.651Z,12
2016-12-14T07:12:08.569Z,16
2016-12-14T07:13:08.810Z,16
2016-12-14T07:14:08.889Z,20
2016-12-14T07:15:08.647Z,24
2016-12-14T07:16:08.694Z,24
2016-12-14T07:17:08.579Z,32
2016-12-14T07:18:08.775Z,36
2016-12-14T07:19:08.627Z,40
2016-12-14T07:20:08.585Z,48
2016-12-14T07:21:08.626Z,60
2016-12-14T07:22:08.737Z,64
2016-12-14T07:23:08.612Z,68
2016-12-14T07:24:08.750Z,72
2016-12-14T07:25:08.745Z,68
2016-12-14T07:26:08.734Z,72
2016-12-14T07:27:08.558Z,72
2016-12-14T07:28:08.734Z,80
2016-12-14T07:29:08.676Z,88
2016-12-14T07:30:08.794Z,96
2016-12-14T07:31:08.750Z,104
2016-12-14T07:32:08.670Z,116
2016-12-14T07:33:08.727Z,128
2016-12-14T07:34:08.747Z,140
2016-12-14T07:35:08.710Z,160
2016-12-14T07:36:08.764Z,180
2016-12-14T07:37:08.622Z,204
2016-12-14T07:38:08.735Z,228
2016-12-14T07:39:08.672Z,248
2016-12-14T07:40:08.843Z,264
2016-12-14T07:41:08.658Z,284
2016-12-14T07:42:08.772Z,312
2016-12-14T07:43:11.071Z,344
2016-12-14T07:44:10.128Z,384
2016-12-14T07:45:09.155Z,432
2016-12-14T07:46:08.795Z,476
2016-12-14T07:47:08.794Z,504
2016-12-14T07:48:08.780Z,520
2016-12-14T07:49:08.672Z,536
2016-12-14T07:50:08.777Z,540
2016-12-14T07:51:08.769Z,536
2016-12-14T07:52:08.907Z,532
2016-12-14T07:53:09.956Z,516
2016-12-14T07:54:09.318Z,492
2016-12-14T07:55:09.071Z,504
2016-12-14T07:56:08.907Z,524
2016-12-14T07:57:09.936Z,536
2016-12-14T07:58:10.000Z,556
2016-12-14T07:59:10.228Z,576
2016-12-14T08:00:10.720Z,576
2016-12-14T08:01:11.605Z,564
2016-12-14T08:02:13.335Z,524
2016-12-14T08:03:12.100Z,488
2016-12-14T08:04:12.187Z,480
2016-12-14T08:05:12.220Z,488
2016-12-14T08:06:11.805Z,516
2016-12-14T08:07:11.660Z,556
2016-12-14T08:08:11.736Z,592
2016-12-14T08:09:12.985Z,628
2016-12-14T08:10:12.442Z,648
2016-12-14T08:11:11.937Z,644
2016-12-14T08:12:11.826Z,636
2016-12-14T08:13:11.536Z,616
2016-12-14T08:14:11.739Z,608
2016-12-14T08:15:11.637Z,612
2016-12-14T08:16:11.574Z,644
2016-12-14T08:17:11.665Z,692
2016-12-14T08:18:11.514Z,744
2016-12-14T08:19:11.485Z,828
2016-12-14T08:20:13.666Z,932
2016-12-14T08:21:11.626Z,1016
2016-12-14T08:22:11.491Z,1036
2016-12-14T08:23:11.516Z,996
2016-12-14T08:24:11.644Z,932
2016-12-14T08:25:11.555Z,884
2016-12-14T08:26:11.538Z,868
2016-12-14T08:27:11.547Z,864
2016-12-14T08:28:11.534Z,872
2016-12-14T08:29:11.452Z,868
2016-12-14T08:30:11.639Z,856
2016-12-14T08:31:11.775Z,836
2016-12-14T08:32:11.548Z,824
2016-12-14T08:33:12.346Z,840
2016-12-14T08:34:11.544Z,880
2016-12-14T08:35:11.747Z,932
2016-12-14T08:36:11.725Z,984
2016-12-14T08:37:12.526Z,1008
2016-12-14T08:38:13.203Z,1000
2016-12-14T08:39:11.352Z,1012
2016-12-14T08:40:11.841Z,1048
2016-12-14T08:41:11.515Z,1072
2016-12-14T08:42:11.646Z,1084
2016-12-14T08:43:11.504Z,1140
2016-12-14T08:44:11.516Z,1208
2016-12-14T08:45:11.507Z,1256
2016-12-14T08:46:11.517Z,1284
2016-12-14T08:47:12.134Z,1300
2016-12-14T08:48:11.725Z,1332
2016-12-14T08:49:11.571Z,1356
2016-12-14T08:50:11.728Z,1396
2016-12-14T08:51:12.074Z,1452
2016-12-14T08:52:12.593Z,1528
2016-12-14T08:53:12.467Z,1604
2016-12-14T08:54:11.640Z,1616
2016-12-14T08:55:11.596Z,1592
2016-12-14T08:56:12.216Z,1600
2016-12-14T08:57:11.559Z,1628
2016-12-14T08:58:12.813Z,1676
2016-12-14T08:59:11.535Z,1748
2016-12-14T09:00:11.570Z,1808
2016-12-14T09:01:11.475Z,1824
2016-12-14T09:02:12.646Z,1816
2016-12-14T09:03:11.472Z,1792
2016-12-14T09:04:11.547Z,1760
2016-12-14T09:05:11.606Z,1772
2016-12-14T09:06:11.790Z,1828
2016-12-14T09:07:11.527Z,1884
2016-12-14T09:08:11.586Z,1928
2016-12-14T09:09:11.710Z,1984
2016-12-14T09:10:11.597Z,2052
2016-12-14T09:11:11.636Z,2108
2016-12-14T09:12:12.183Z,2124
2016-12-14T09:13:12.166Z,2140
2016-12-14T09:14:11.605Z,2352
2016-12-14T09:15:11.466Z,2536
2016-12-14T09:16:11.646Z,2604
2016-12-14T09:17:11.203Z,2692
2016-12-14T09:18:12.391Z,2816
2016-12-14T09:19:11.704Z,3020
2016-12-14T09:20:11.671Z,3460
2016-12-14T09:21:11.148Z,3632
2016-12-14T09:22:11.187Z,3684
2016-12-14T09:23:11.436Z,3720
2016-12-14T09:24:11.239Z,3700
2016-12-14T09:25:11.334Z,3796
2016-12-14T09:26:11.075Z,3776
2016-12-14T09:27:11.270Z,4072
2016-12-14T09:28:11.156Z,4588
2016-12-14T09:29:10.937Z,5304
2016-12-14T09:30:11.025Z,6056
2016-12-14T09:31:11.127Z,6352
2016-12-14T09:32:10.169Z,7108
2016-12-14T09:33:10.169Z,8120
2016-12-14T09:34:10.170Z,9192
2016-12-14T09:35:10.455Z,9008
2016-12-14T09:36:10.053Z,8396
2016-12-14T09:37:09.406Z,8864
2016-12-14T09:38:09.946Z,9868
2016-12-14T09:39:09.283Z,8972
2016-12-14T09:40:09.688Z,8060
2016-12-14T09:41:10.465Z,7892
2016-12-14T09:42:09.315Z,8452
2016-12-14T09:43:09.308Z,9364
2016-12-14T09:44:09.465Z,9344
2016-12-14T09:45:09.106Z,9700
2016-12-14T09:46:08.931Z,10820
2016-12-14T09:47:09.216Z,11588
2016-12-14T09:48:09.572Z,11968
2016-12-14T09:49:09.215Z,11348
2016-12-14T09:50:09.012Z,10296
2016-12-14T09:51:09.480Z,8164
2016-12-14T09:52:09.660Z,8072
2016-12-14T09:53:09.724Z,8912
2016-12-14T09:54:10.097Z,8256
2016-12-14T09:55:10.566Z,6796
2016-12-14T09:56:09.614Z,6208
2016-12-14T09:57:09.599Z,6208
2016-12-14T09:58:09.864Z,6344
2016-12-14T09:59:10.340Z,6816
2016-12-14T10:00:10.039Z,7980
2016-12-14T10:01:11.106Z,8684
2016-12-14T10:02:12.315Z,9608
2016-12-14T10:03:12.593Z,12088
2016-12-14T10:04:09.946Z,15200
2016-12-14T10:05:09.865Z,16256
2016-12-14T10:06:10.036Z,14848
2016-12-14T10:07:09.797Z,10576
2016-12-14T10:08:09.893Z,8684
2016-12-14T10:09:09.759Z,8860
2016-12-14T10:10:09.818Z,7824
2016-12-14T10:11:09.495Z,6880
2016-12-14T10:12:09.730Z,7100
2016-12-14T10:13:09.273Z,8764
2016-12-14T10:14:09.247Z,9896
2016-12-14T10:15:09.197Z,9112
2016-12-14T10:16:09.793Z,8452
2016-12-14T10:17:09.511Z,7988
2016-12-14T10:18:09.294Z,8036
2016-12-14T10:19:09.754Z,7840
2016-12-14T10:20:08.946Z,7080
2016-12-14T10:21:09.152Z,6292
2016-12-14T10:22:09.158Z,5916
2016-12-14T10:23:09.820Z,5868
2016-12-14T10:24:09.193Z,5884
2016-12-14T10:25:09.526Z,5832
2016-12-14T10:26:09.654Z,5720
2016-12-14T10:27:09.305Z,5648
2016-12-14T10:28:09.240Z,5524
2016-12-14T10:29:09.175Z,5464
2016-12-14T10:30:09.154Z,5484
2016-12-14T10:31:09.007Z,5792
2016-12-14T10:32:09.264Z,6372
2016-12-14T10:33:09.204Z,6900
2016-12-14T10:34:09.938Z,7012
2016-12-14T10:35:09.818Z,6656
2016-12-14T10:36:09.787Z,6460
2016-12-14T10:37:10.406Z,6636
2016-12-14T10:38:10.206Z,6896
2016-12-14T10:39:10.063Z,6952
2016-12-14T10:40:10.625Z,6612
2016-12-14T10:41:09.964Z,6612
2016-12-14T10:42:10.713Z,7312
2016-12-14T10:43:10.842Z,8800
2016-12-14T10:44:09.878Z,10452
2016-12-14T10:45:09.560Z,10984
2016-12-14T10:46:09.288Z,11092
2016-12-14T10:47:09.828Z,11408
2016-12-14T10:48:10.651Z,11880
2016-12-14T10:49:10.359Z,11428
2016-12-14T10:50:09.872Z,9756
2016-12-14T10:51:10.056Z,8424
2016-12-14T10:52:10.939Z,7788
2016-12-14T10:53:11.282Z,7636
2016-12-14T10:54:11.467Z,7208
2016-12-14T10:55:11.242Z,6652
2016-12-14T10:56:11.543Z,6512
2016-12-14T10:57:11.548Z,6964
2016-12-14T10:58:11.558Z,7372
2016-12-14T10:59:11.417Z,7844
2016-12-14T11:00:11.522Z,8412
2016-12-14T11:01:11.539Z,9108
2016-12-14T11:02:11.536Z,10152
2016-12-14T11:03:11.666Z,11808
2016-12-14T11:04:11.880Z,13636
2016-12-14T11:05:11.756Z,15328
2016-12-14T11:06:11.527Z,15936
2016-12-14T11:07:11.627Z,15968
2016-12-14T11:08:11.668Z,15680
2016-12-14T11:09:11.537Z,15296
2016-12-14T11:10:11.886Z,15264
2016-12-14T11:11:14.285Z,17248
2016-12-14T11:12:11.568Z,16928
2016-12-14T11:13:11.496Z,16288
2016-12-14T11:14:11.468Z,16160
2016-12-14T11:15:11.486Z,16128
2016-12-14T11:16:11.527Z,15016
2016-12-14T11:17:11.391Z,14832
2016-12-14T11:18:11.326Z,17120
2016-12-14T11:19:11.227Z,17312
2016-12-14T11:20:11.411Z,18368
2016-12-14T11:21:11.432Z,18912
2016-12-14T11:22:10.734Z,18976
2016-12-14T11:23:10.915Z,18528
2016-12-14T11:24:10.917Z,18464
2016-12-14T11:25:10.295Z,17792
2016-12-14T11:26:09.909Z,17088
2016-12-14T11:27:09.909Z,16000
2016-12-14T11:28:10.538Z,16160
2016-12-14T11:29:09.737Z,16960
2016-12-14T11:30:10.333Z,16800
2016-12-14T11:31:09.619Z,16128
2016-12-14T11:32:10.655Z,15240
2016-12-14T11:33:09.428Z,14132
2016-12-14T11:34:09.313Z,13536
2016-12-14T11:35:09.528Z,12652
2016-12-14T11:36:09.408Z,11704
2016-12-14T11:37:09.499Z,11164
2016-12-14T11:38:09.504Z,10992
2016-12-14T11:39:09.187Z,11300
2016-12-14T11:40:09.344Z,11964
2016-12-14T11:41:09.309Z,12612
2016-12-14T11:42:10.216Z,13180
2016-12-14T11:43:09.179Z,13484
2016-12-14T11:44:09.901Z,13192
2016-12-14T11:45:09.197Z,12452
2016-12-14T11:46:09.160Z,11300
2016-12-14T11:47:09.249Z,10316
2016-12-14T11:48:09.076Z,9772
2016-12-14T11:49:09.095Z,9628
2016-12-14T11:50:09.049Z,9524
2016-12-14T11:51:09.153Z,9064
2016-12-14T11:52:09.159Z,8416
2016-12-14T11:53:09.016Z,7608
2016-12-14T11:54:09.360Z,7144
2016-12-14T11:55:08.995Z,7004
2016-12-14T11:56:09.079Z,7252
2016-12-14T11:57:09.118Z,8088
2016-12-14T11:58:09.068Z,9164
2016-12-14T11:59:09.066Z,9848
2016-12-14T12:00:09.179Z,10044
2016-12-14T12:01:09.048Z,10020
2016-12-14T12:02:09.007Z,9960
2016-12-14T12:03:09.134Z,9888
2016-12-14T12:04:09.115Z,10352
2016-12-14T12:05:09.204Z,10904
2016-12-14T12:06:09.108Z,11180
2016-12-14T12:07:08.995Z,11032
2016-12-14T12:08:09.008Z,10616
2016-12-14T12:09:09.255Z,10172
2016-12-14T12:10:09.204Z,9860
2016-12-14T12:11:09.075Z,9784
2016-12-14T12:12:09.057Z,9928
2016-12-14T12:13:09.078Z,10208
2016-12-14T12:14:09.219Z,10492
2016-12-14T12:15:09.027Z,10716
2016-12-14T12:16:09.018Z,10884
2016-12-14T12:17:09.189Z,10984
2016-12-14T12:18:09.091Z,10980
2016-12-14T12:19:08.995Z,10932
2016-12-14T12:20:09.109Z,10896
2016-12-14T12:21:08.979Z,10868
2016-12-14T12:22:09.111Z,10820
2016-12-14T12:23:09.089Z,10752
2016-12-14T12:24:09.187Z,10720
2016-12-14T12:25:09.075Z,10712
2016-12-14T12:26:09.026Z,10720
2016-12-14T12:27:09.092Z,10740
2016-12-14T12:28:09.027Z,10840
2016-12-14T12:29:09.216Z,11040
2016-12-14T12:30:09.119Z,11356
2016-12-14T12:31:09.116Z,11720
2016-12-14T12:32:09.049Z,12000
2016-12-14T12:33:09.261Z,12152
2016-12-14T12:34:09.092Z,12204
2016-12-14T12:35:09.068Z,12028
2016-12-14T12:36:09.034Z,11828
2016-12-14T12:37:09.157Z,11908
2016-12-14T12:38:09.289Z,12160
2016-12-14T12:39:09.010Z,12496
2016-12-14T12:40:09.059Z,12436
2016-12-14T12:41:09.189Z,12028
2016-12-14T12:42:09.070Z,11592
2016-12-14T12:43:09.009Z,11200
2016-12-14T12:44:09.230Z,10728
2016-12-14T12:45:09.130Z,10368
2016-12-14T12:46:09.057Z,9972
2016-12-14T12:47:09.120Z,9508
2016-12-14T12:48:09.277Z,9004
2016-12-14T12:49:09.176Z,8592
2016-12-14T12:50:09.177Z,8332
2016-12-14T12:51:09.173Z,8132
2016-12-14T12:52:09.023Z,7952
2016-12-14T12:53:09.104Z,8004
2016-12-14T12:54:09.179Z,8032
2016-12-14T12:55:09.085Z,7992
2016-12-14T12:56:09.479Z,8056
2016-12-14T12:57:09.189Z,8072
2016-12-14T12:58:09.083Z,8112
2016-12-14T12:59:09.208Z,8192
2016-12-14T13:00:09.112Z,8172
2016-12-14T13:01:09.139Z,8088
2016-12-14T13:02:10.868Z,7960
2016-12-14T13:03:09.234Z,8000
2016-12-14T13:04:09.099Z,8008
2016-12-14T13:09:26.909Z,7932
2016-12-14T13:09:38.197Z,7400
2016-12-14T13:10:38.292Z,7500
2016-12-14T13:11:38.113Z,7508
2016-12-14T13:12:38.227Z,7428
2016-12-14T13:13:38.208Z,7424
2016-12-14T13:14:38.569Z,7420
2016-12-14T13:15:38.176Z,7456
2016-12-14T13:16:38.279Z,7404
2016-12-14T13:17:38.165Z,7276
2016-12-14T13:18:38.330Z,7224
2016-12-14T13:19:38.187Z,7168
2016-12-14T13:20:38.328Z,7092
2016-12-14T13:21:38.130Z,6968
2016-12-14T13:22:38.308Z,6928
2016-12-14T13:23:38.280Z,6860
2016-12-14T13:24:38.296Z,6724
2016-12-14T13:25:38.327Z,6664
2016-12-14T13:26:38.197Z,6648
2016-12-14T13:27:38.219Z,6668
2016-12-14T13:28:38.346Z,6668
2016-12-14T13:29:38.256Z,6700
2016-12-14T13:30:38.325Z,6676
2016-12-14T13:31:38.307Z,6580
2016-12-14T13:32:38.402Z,6480
2016-12-14T13:33:39.523Z,6392
2016-12-14T13:34:38.372Z,6264
2016-12-14T13:35:38.276Z,6208
2016-12-14T13:36:38.306Z,6060
2016-12-14T13:37:38.155Z,5924
2016-12-14T13:38:38.229Z,5816
2016-12-14T13:39:38.200Z,5652
2016-12-14T13:40:38.317Z,5532
2016-12-14T13:41:38.256Z,5512
2016-12-14T13:42:38.567Z,5540
2016-12-14T13:43:38.301Z,5480
2016-12-14T13:44:38.326Z,5384
2016-12-14T13:45:39.974Z,5344
2016-12-14T13:46:38.662Z,5288
2016-12-14T13:47:38.282Z,5248
2016-12-14T13:48:38.338Z,5256
2016-12-14T13:49:38.215Z,5252
2016-12-14T13:50:38.331Z,5248
2016-12-14T13:51:38.239Z,5176
2016-12-14T13:52:38.365Z,5084
2016-12-14T13:53:38.230Z,5028
2016-12-14T13:54:38.223Z,4972
2016-12-14T13:55:41.267Z,4896
2016-12-14T13:56:38.386Z,4824
2016-12-14T13:57:38.214Z,4756
2016-12-14T13:58:38.353Z,4716
2016-12-14T13:59:38.290Z,4644
2016-12-14T14:00:38.544Z,4624
2016-12-14T14:01:38.176Z,4640
2016-12-14T14:02:38.346Z,4648
2016-12-14T14:03:38.273Z,4628
2016-12-14T14:04:38.139Z,4632